sensor_id;sensor_type;location;lat;lon;timestamp;P1;durP1;ratioP1;P2;durP2;ratioP2
68074;SDS011;54864;52.002;5.468;2022-10-15T00:00:29;27.63;;;19.37;;
68074;SDS011;54864;52.002;5.468;2022-10-15T00:01:30;25.70;;;19.42;;
68074;SDS011;54864;52.002;5.468;2022-10-15T00:02:32;25.47;;;18.80;;
68074;SDS011;54864;52.002;5.468;2022-10-15T00:03:35;25.13;;;19.13;;
68074;SDS011;54864;52.002;5.468;2022-10-15T00:04:39;27.90;;;20.38;;
68074;SDS011;54864;52.002;5.468;2022-10-15T00:05:40;27.33;;;20.42;;
68074;SDS011;54864;52.002;5.468;2022-10-15T00:06:42;27.73;;;20.02;;
68074;SDS011;54864;52.002;5.468;2022-10-15T00:07:42;24.80;;;19.23;;
68074;SDS011;54864;52.002;5.468;2022-10-15T00:08:45;33.28;;;22.17;;
68074;SDS011;54864;52.002;5.468;2022-10-15T00:09:47;35.00;;;22.65;;
68074;SDS011;54864;52.002;5.468;2022-10-15T00:10:48;30.30;;;20.60;;
68074;SDS011;54864;52.002;5.468;2022-10-15T00:11:49;31.00;;;21.55;;
68074;SDS011;54864;52.002;5.468;2022-10-15T00:12:50;30.27;;;21.48;;
68074;SDS011;54864;52.002;5.468;2022-10-15T00:13:52;29.92;;;21.23;;
68074;SDS011;54864;52.002;5.468;2022-10-15T00:14:54;27.33;;;20.20;;
68074;SDS011;54864;52.002;5.468;2022-10-15T00:15:56;36.42;;;22.38;;
68074;SDS011;54864;52.002;5.468;2022-10-15T00:16:56;37.22;;;24.35;;
68074;SDS011;54864;52.002;5.468;2022-10-15T00:17:58;35.35;;;23.42;;
68074;SDS011;54864;52.002;5.468;2022-10-15T00:19:00;34.70;;;23.90;;
68074;SDS011;54864;52.002;5.468;2022-10-15T00:20:03;37.10;;;24.67;;
68074;SDS011;54864;52.002;5.468;2022-10-15T00:21:08;33.47;;;24.80;;
68074;SDS011;54864;52.002;5.468;2022-10-15T00:22:14;33.58;;;22.40;;
68074;SDS011;54864;52.002;5.468;2022-10-15T00:23:15;34.25;;;23.55;;
68074;SDS011;54864;52.002;5.468;2022-10-15T00:24:16;36.22;;;23.08;;
68074;SDS011;54864;52.002;5.468;2022-10-15T00:25:17;32.00;;;22.67;;
68074;SDS011;54864;52.002;5.468;2022-10-15T00:26:20;33.05;;;21.90;;
68074;SDS011;54864;52.002;5.468;2022-10-15T00:27:28;34.03;;;23.20;;
68074;SDS011;54864;52.002;5.468;2022-10-15T00:28:28;32.08;;;23.90;;
68074;SDS011;54864;52.002;5.468;2022-10-15T00:29:30;35.40;;;24.48;;
68074;SDS011;54864;52.002;5.468;2022-10-15T00:30:32;33.25;;;24.17;;
68074;SDS011;54864;52.002;5.468;2022-10-15T00:31:33;30.33;;;22.17;;
68074;SDS011;54864;52.002;5.468;2022-10-15T00:32:35;30.48;;;22.95;;
68074;SDS011;54864;52.002;5.468;2022-10-15T00:33:36;32.97;;;23.17;;
68074;SDS011;54864;52.002;5.468;2022-10-15T00:34:40;28.67;;;22.07;;
68074;SDS011;54864;52.002;5.468;2022-10-15T00:35:41;33.97;;;23.58;;
68074;SDS011;54864;52.002;5.468;2022-10-15T00:36:43;30.45;;;22.65;;
68074;SDS011;54864;52.002;5.468;2022-10-15T00:37:44;31.97;;;23.50;;
68074;SDS011;54864;52.002;5.468;2022-10-15T00:38:45;28.98;;;23.17;;
68074;SDS011;54864;52.002;5.468;2022-10-15T00:39:47;34.55;;;23.88;;
68074;SDS011;54864;52.002;5.468;2022-10-15T00:40:49;33.07;;;24.07;;
68074;SDS011;54864;52.002;5.468;2022-10-15T00:41:50;37.73;;;24.33;;
68074;SDS011;54864;52.002;5.468;2022-10-15T00:42:52;36.28;;;25.25;;
68074;SDS011;54864;52.002;5.468;2022-10-15T00:43:53;34.00;;;24.08;;
68074;SDS011;54864;52.002;5.468;2022-10-15T00:44:57;33.58;;;25.45;;
68074;SDS011;54864;52.002;5.468;2022-10-15T00:45:59;32.80;;;24.05;;
68074;SDS011;54864;52.002;5.468;2022-10-15T00:47:02;30.63;;;24.02;;
68074;SDS011;54864;52.002;5.468;2022-10-15T00:48:12;31.83;;;23.80;;
68074;SDS011;54864;52.002;5.468;2022-10-15T00:49:14;32.75;;;24.45;;
68074;SDS011;54864;52.002;5.468;2022-10-15T00:50:23;34.25;;;24.05;;
68074;SDS011;54864;52.002;5.468;2022-10-15T00:51:29;32.72;;;23.92;;
68074;SDS011;54864;52.002;5.468;2022-10-15T00:52:37;31.88;;;23.35;;
68074;SDS011;54864;52.002;5.468;2022-10-15T00:53:46;30.73;;;23.60;;
68074;SDS011;54864;52.002;5.468;2022-10-15T00:54:50;32.80;;;23.92;;
68074;SDS011;54864;52.002;5.468;2022-10-15T00:55:58;30.95;;;22.02;;
68074;SDS011;54864;52.002;5.468;2022-10-15T00:57:01;33.05;;;23.40;;
68074;SDS011;54864;52.002;5.468;2022-10-15T00:58:05;34.42;;;25.20;;
68074;SDS011;54864;52.002;5.468;2022-10-15T00:59:11;31.08;;;22.88;;
68074;SDS011;54864;52.002;5.468;2022-10-15T01:00:16;36.35;;;23.73;;
68074;SDS011;54864;52.002;5.468;2022-10-15T01:01:18;30.20;;;23.45;;
68074;SDS011;54864;52.002;5.468;2022-10-15T01:02:21;28.17;;;21.55;;
68074;SDS011;54864;52.002;5.468;2022-10-15T01:03:22;34.60;;;24.17;;
68074;SDS011;54864;52.002;5.468;2022-10-15T01:04:24;34.13;;;25.73;;
68074;SDS011;54864;52.002;5.468;2022-10-15T01:05:26;27.57;;;20.53;;
68074;SDS011;54864;52.002;5.468;2022-10-15T01:06:28;30.73;;;23.63;;
68074;SDS011;54864;52.002;5.468;2022-10-15T01:07:29;37.37;;;25.27;;
68074;SDS011;54864;52.002;5.468;2022-10-15T01:08:31;32.10;;;24.55;;
68074;SDS011;54864;52.002;5.468;2022-10-15T01:09:33;36.22;;;24.55;;
68074;SDS011;54864;52.002;5.468;2022-10-15T01:10:36;32.38;;;23.23;;
68074;SDS011;54864;52.002;5.468;2022-10-15T01:11:49;37.25;;;23.02;;
68074;SDS011;54864;52.002;5.468;2022-10-15T01:12:56;32.85;;;24.30;;
68074;SDS011;54864;52.002;5.468;2022-10-15T01:14:01;34.40;;;25.70;;
68074;SDS011;54864;52.002;5.468;2022-10-15T01:15:15;30.30;;;22.40;;
68074;SDS011;54864;52.002;5.468;2022-10-15T01:16:23;34.25;;;23.45;;
68074;SDS011;54864;52.002;5.468;2022-10-15T01:17:39;32.92;;;24.95;;
68074;SDS011;54864;52.002;5.468;2022-10-15T01:18:48;36.05;;;24.88;;
68074;SDS011;54864;52.002;5.468;2022-10-15T01:20:04;33.60;;;23.95;;
68074;SDS011;54864;52.002;5.468;2022-10-15T01:21:49;31.98;;;23.30;;
68074;SDS011;54864;52.002;5.468;2022-10-15T01:23:04;33.08;;;22.92;;
68074;SDS011;54864;52.002;5.468;2022-10-15T01:24:57;34.65;;;25.27;;
68074;SDS011;54864;52.002;5.468;2022-10-15T01:26:21;38.85;;;26.45;;
68074;SDS011;54864;52.002;5.468;2022-10-15T01:27:47;37.15;;;26.65;;
68074;SDS011;54864;52.002;5.468;2022-10-15T01:28:59;38.85;;;27.48;;
68074;SDS011;54864;52.002;5.468;2022-10-15T01:30:21;37.65;;;28.13;;
68074;SDS011;54864;52.002;5.468;2022-10-15T01:31:27;33.15;;;25.73;;
68074;SDS011;54864;52.002;5.468;2022-10-15T01:32:40;34.92;;;25.38;;
68074;SDS011;54864;52.002;5.468;2022-10-15T01:33:54;38.50;;;25.98;;
68074;SDS011;54864;52.002;5.468;2022-10-15T01:35:06;39.28;;;28.63;;
68074;SDS011;54864;52.002;5.468;2022-10-15T01:36:19;38.20;;;27.30;;
68074;SDS011;54864;52.002;5.468;2022-10-15T01:37:34;40.47;;;28.27;;
68074;SDS011;54864;52.002;5.468;2022-10-15T01:38:44;38.08;;;26.80;;
68074;SDS011;54864;52.002;5.468;2022-10-15T01:39:57;36.67;;;27.33;;
68074;SDS011;54864;52.002;5.468;2022-10-15T01:41:07;38.63;;;27.70;;
68074;SDS011;54864;52.002;5.468;2022-10-15T01:42:14;33.53;;;25.75;;
68074;SDS011;54864;52.002;5.468;2022-10-15T01:43:26;41.55;;;28.33;;
68074;SDS011;54864;52.002;5.468;2022-10-15T01:44:38;41.28;;;28.10;;
68074;SDS011;54864;52.002;5.468;2022-10-15T01:45:49;35.58;;;25.33;;
68074;SDS011;54864;52.002;5.468;2022-10-15T01:46:58;37.00;;;25.77;;
68074;SDS011;54864;52.002;5.468;2022-10-15T01:48:04;33.03;;;25.40;;
68074;SDS011;54864;52.002;5.468;2022-10-15T01:49:11;36.70;;;24.77;;
68074;SDS011;54864;52.002;5.468;2022-10-15T01:50:14;36.17;;;24.55;;
68074;SDS011;54864;52.002;5.468;2022-10-15T01:51:21;38.63;;;26.77;;
68074;SDS011;54864;52.002;5.468;2022-10-15T01:52:27;35.63;;;25.63;;
68074;SDS011;54864;52.002;5.468;2022-10-15T01:53:34;35.95;;;25.42;;
68074;SDS011;54864;52.002;5.468;2022-10-15T01:54:37;33.90;;;24.48;;
68074;SDS011;54864;52.002;5.468;2022-10-15T01:55:41;40.85;;;26.58;;
68074;SDS011;54864;52.002;5.468;2022-10-15T01:56:45;42.05;;;27.77;;
68074;SDS011;54864;52.002;5.468;2022-10-15T01:57:50;36.57;;;26.07;;
68074;SDS011;54864;52.002;5.468;2022-10-15T01:58:55;33.85;;;23.45;;
68074;SDS011;54864;52.002;5.468;2022-10-15T01:59:59;35.92;;;24.23;;
68074;SDS011;54864;52.002;5.468;2022-10-15T02:01:02;36.65;;;26.70;;
68074;SDS011;54864;52.002;5.468;2022-10-15T02:02:05;33.90;;;25.52;;
68074;SDS011;54864;52.002;5.468;2022-10-15T02:03:06;34.83;;;25.43;;
68074;SDS011;54864;52.002;5.468;2022-10-15T02:04:15;36.50;;;25.85;;
68074;SDS011;54864;52.002;5.468;2022-10-15T02:05:21;37.22;;;24.90;;
68074;SDS011;54864;52.002;5.468;2022-10-15T02:06:36;38.72;;;26.13;;
68074;SDS011;54864;52.002;5.468;2022-10-15T02:07:46;37.67;;;26.50;;
68074;SDS011;54864;52.002;5.468;2022-10-15T02:09:00;40.35;;;27.02;;
68074;SDS011;54864;52.002;5.468;2022-10-15T02:10:15;38.17;;;26.10;;
68074;SDS011;54864;52.002;5.468;2022-10-15T02:11:25;37.63;;;27.13;;
68074;SDS011;54864;52.002;5.468;2022-10-15T02:12:34;38.93;;;27.50;;
68074;SDS011;54864;52.002;5.468;2022-10-15T02:13:57;35.42;;;26.13;;
68074;SDS011;54864;52.002;5.468;2022-10-15T02:15:09;36.40;;;25.87;;
68074;SDS011;54864;52.002;5.468;2022-10-15T02:16:21;40.33;;;28.85;;
68074;SDS011;54864;52.002;5.468;2022-10-15T02:17:30;43.20;;;27.10;;
68074;SDS011;54864;52.002;5.468;2022-10-15T02:18:40;41.30;;;28.70;;
68074;SDS011;54864;52.002;5.468;2022-10-15T02:19:50;37.85;;;27.88;;
68074;SDS011;54864;52.002;5.468;2022-10-15T02:21:00;42.72;;;28.30;;
68074;SDS011;54864;52.002;5.468;2022-10-15T02:22:07;49.35;;;30.67;;
68074;SDS011;54864;52.002;5.468;2022-10-15T02:23:16;43.55;;;30.70;;
68074;SDS011;54864;52.002;5.468;2022-10-15T02:24:22;42.83;;;28.63;;
68074;SDS011;54864;52.002;5.468;2022-10-15T02:25:29;46.72;;;30.98;;
68074;SDS011;54864;52.002;5.468;2022-10-15T02:26:34;47.10;;;31.25;;
68074;SDS011;54864;52.002;5.468;2022-10-15T02:27:39;47.88;;;29.75;;
68074;SDS011;54864;52.002;5.468;2022-10-15T02:28:44;43.97;;;29.60;;
68074;SDS011;54864;52.002;5.468;2022-10-15T02:29:53;42.13;;;28.77;;
68074;SDS011;54864;52.002;5.468;2022-10-15T02:30:57;43.28;;;29.27;;
68074;SDS011;54864;52.002;5.468;2022-10-15T02:32:03;44.05;;;28.65;;
68074;SDS011;54864;52.002;5.468;2022-10-15T02:33:08;39.58;;;26.58;;
68074;SDS011;54864;52.002;5.468;2022-10-15T02:34:12;46.38;;;29.65;;
68074;SDS011;54864;52.002;5.468;2022-10-15T02:35:18;39.88;;;29.60;;
68074;SDS011;54864;52.002;5.468;2022-10-15T02:36:22;43.10;;;29.90;;
68074;SDS011;54864;52.002;5.468;2022-10-15T02:37:24;47.42;;;29.73;;
68074;SDS011;54864;52.002;5.468;2022-10-15T02:38:29;42.80;;;29.45;;
68074;SDS011;54864;52.002;5.468;2022-10-15T02:39:34;45.20;;;30.67;;
68074;SDS011;54864;52.002;5.468;2022-10-15T02:40:36;42.00;;;29.00;;
68074;SDS011;54864;52.002;5.468;2022-10-15T02:41:40;46.15;;;29.02;;
68074;SDS011;54864;52.002;5.468;2022-10-15T02:42:43;43.13;;;30.88;;
68074;SDS011;54864;52.002;5.468;2022-10-15T02:43:44;43.33;;;30.55;;
68074;SDS011;54864;52.002;5.468;2022-10-15T02:44:47;48.58;;;33.15;;
68074;SDS011;54864;52.002;5.468;2022-10-15T02:45:48;45.77;;;31.27;;
68074;SDS011;54864;52.002;5.468;2022-10-15T02:46:50;50.72;;;32.08;;
68074;SDS011;54864;52.002;5.468;2022-10-15T02:47:52;44.83;;;30.88;;
68074;SDS011;54864;52.002;5.468;2022-10-15T02:48:54;48.53;;;31.30;;
68074;SDS011;54864;52.002;5.468;2022-10-15T02:49:55;49.30;;;31.70;;
68074;SDS011;54864;52.002;5.468;2022-10-15T02:50:57;47.65;;;31.35;;
68074;SDS011;54864;52.002;5.468;2022-10-15T02:51:57;48.08;;;33.00;;
68074;SDS011;54864;52.002;5.468;2022-10-15T02:53:00;51.15;;;34.10;;
68074;SDS011;54864;52.002;5.468;2022-10-15T02:54:01;50.25;;;33.22;;
68074;SDS011;54864;52.002;5.468;2022-10-15T02:55:05;51.33;;;33.50;;
68074;SDS011;54864;52.002;5.468;2022-10-15T02:56:07;50.05;;;31.85;;
68074;SDS011;54864;52.002;5.468;2022-10-15T02:57:08;50.35;;;33.35;;
68074;SDS011;54864;52.002;5.468;2022-10-15T02:58:09;46.67;;;32.23;;
68074;SDS011;54864;52.002;5.468;2022-10-15T02:59:11;52.03;;;33.75;;
68074;SDS011;54864;52.002;5.468;2022-10-15T03:00:12;46.88;;;31.50;;
68074;SDS011;54864;52.002;5.468;2022-10-15T03:01:14;47.65;;;31.13;;
68074;SDS011;54864;52.002;5.468;2022-10-15T03:02:15;48.37;;;32.97;;
68074;SDS011;54864;52.002;5.468;2022-10-15T03:03:18;45.72;;;32.22;;
68074;SDS011;54864;52.002;5.468;2022-10-15T03:04:19;47.63;;;32.20;;
68074;SDS011;54864;52.002;5.468;2022-10-15T03:05:21;47.15;;;31.83;;
68074;SDS011;54864;52.002;5.468;2022-10-15T03:06:22;49.05;;;32.97;;
68074;SDS011;54864;52.002;5.468;2022-10-15T03:07:24;48.65;;;32.90;;
68074;SDS011;54864;52.002;5.468;2022-10-15T03:08:25;45.47;;;32.70;;
68074;SDS011;54864;52.002;5.468;2022-10-15T03:09:26;52.15;;;33.58;;
68074;SDS011;54864;52.002;5.468;2022-10-15T03:10:27;47.10;;;33.33;;
68074;SDS011;54864;52.002;5.468;2022-10-15T03:11:29;52.03;;;32.92;;
68074;SDS011;54864;52.002;5.468;2022-10-15T03:12:30;48.65;;;32.08;;
68074;SDS011;54864;52.002;5.468;2022-10-15T03:13:34;46.72;;;32.72;;
68074;SDS011;54864;52.002;5.468;2022-10-15T03:14:35;52.30;;;31.88;;
68074;SDS011;54864;52.002;5.468;2022-10-15T03:15:36;49.67;;;33.25;;
68074;SDS011;54864;52.002;5.468;2022-10-15T03:16:37;48.90;;;32.33;;
68074;SDS011;54864;52.002;5.468;2022-10-15T03:17:39;48.22;;;32.53;;
68074;SDS011;54864;52.002;5.468;2022-10-15T03:18:41;47.88;;;30.45;;
68074;SDS011;54864;52.002;5.468;2022-10-15T03:19:43;43.85;;;30.95;;
68074;SDS011;54864;52.002;5.468;2022-10-15T03:20:51;47.53;;;31.60;;
68074;SDS011;54864;52.002;5.468;2022-10-15T03:21:53;45.13;;;32.13;;
68074;SDS011;54864;52.002;5.468;2022-10-15T03:22:54;50.75;;;32.75;;
68074;SDS011;54864;52.002;5.468;2022-10-15T03:23:55;49.65;;;32.70;;
68074;SDS011;54864;52.002;5.468;2022-10-15T03:24:57;48.97;;;33.05;;
68074;SDS011;54864;52.002;5.468;2022-10-15T03:25:59;53.97;;;33.97;;
68074;SDS011;54864;52.002;5.468;2022-10-15T03:27:00;52.10;;;32.33;;
68074;SDS011;54864;52.002;5.468;2022-10-15T03:28:02;47.13;;;31.90;;
68074;SDS011;54864;52.002;5.468;2022-10-15T03:29:02;46.22;;;30.02;;
68074;SDS011;54864;52.002;5.468;2022-10-15T03:30:04;46.33;;;31.08;;
68074;SDS011;54864;52.002;5.468;2022-10-15T03:31:07;48.50;;;31.38;;
68074;SDS011;54864;52.002;5.468;2022-10-15T03:32:09;48.43;;;31.47;;
68074;SDS011;54864;52.002;5.468;2022-10-15T03:33:10;47.70;;;29.77;;
68074;SDS011;54864;52.002;5.468;2022-10-15T03:34:13;47.63;;;30.73;;
68074;SDS011;54864;52.002;5.468;2022-10-15T03:35:14;41.85;;;31.15;;
68074;SDS011;54864;52.002;5.468;2022-10-15T03:36:16;45.30;;;30.08;;
68074;SDS011;54864;52.002;5.468;2022-10-15T03:37:18;45.38;;;30.65;;
68074;SDS011;54864;52.002;5.468;2022-10-15T03:38:19;44.60;;;29.52;;
68074;SDS011;54864;52.002;5.468;2022-10-15T03:39:21;46.08;;;29.05;;
68074;SDS011;54864;52.002;5.468;2022-10-15T03:40:21;42.40;;;29.38;;
68074;SDS011;54864;52.002;5.468;2022-10-15T03:41:23;42.85;;;28.70;;
68074;SDS011;54864;52.002;5.468;2022-10-15T03:42:24;41.10;;;29.25;;
68074;SDS011;54864;52.002;5.468;2022-10-15T03:43:26;43.53;;;29.33;;
68074;SDS011;54864;52.002;5.468;2022-10-15T03:44:27;41.63;;;28.30;;
68074;SDS011;54864;52.002;5.468;2022-10-15T03:45:28;42.47;;;29.60;;
68074;SDS011;54864;52.002;5.468;2022-10-15T03:46:29;44.75;;;30.10;;
68074;SDS011;54864;52.002;5.468;2022-10-15T03:47:31;41.00;;;27.85;;
68074;SDS011;54864;52.002;5.468;2022-10-15T03:48:32;38.35;;;27.55;;
68074;SDS011;54864;52.002;5.468;2022-10-15T03:49:35;43.38;;;29.85;;
68074;SDS011;54864;52.002;5.468;2022-10-15T03:50:37;45.97;;;30.60;;
68074;SDS011;54864;52.002;5.468;2022-10-15T03:51:38;45.50;;;30.58;;
68074;SDS011;54864;52.002;5.468;2022-10-15T03:52:40;54.55;;;32.35;;
68074;SDS011;54864;52.002;5.468;2022-10-15T03:53:41;40.03;;;29.63;;
68074;SDS011;54864;52.002;5.468;2022-10-15T03:54:42;46.27;;;29.40;;
68074;SDS011;54864;52.002;5.468;2022-10-15T03:55:43;41.53;;;29.13;;
68074;SDS011;54864;52.002;5.468;2022-10-15T03:56:45;45.08;;;28.38;;
68074;SDS011;54864;52.002;5.468;2022-10-15T03:57:46;45.67;;;30.05;;
68074;SDS011;54864;52.002;5.468;2022-10-15T03:58:48;47.50;;;31.65;;
68074;SDS011;54864;52.002;5.468;2022-10-15T03:59:49;49.03;;;32.50;;
68074;SDS011;54864;52.002;5.468;2022-10-15T04:00:51;44.60;;;30.27;;
68074;SDS011;54864;52.002;5.468;2022-10-15T04:01:51;44.53;;;30.08;;
68074;SDS011;54864;52.002;5.468;2022-10-15T04:02:53;41.45;;;29.17;;
68074;SDS011;54864;52.002;5.468;2022-10-15T04:03:54;49.35;;;31.17;;
68074;SDS011;54864;52.002;5.468;2022-10-15T04:04:57;45.47;;;31.08;;
68074;SDS011;54864;52.002;5.468;2022-10-15T04:05:58;41.38;;;29.35;;
68074;SDS011;54864;52.002;5.468;2022-10-15T04:07:00;42.28;;;29.98;;
68074;SDS011;54864;52.002;5.468;2022-10-15T04:08:01;45.97;;;30.40;;
68074;SDS011;54864;52.002;5.468;2022-10-15T04:09:02;40.15;;;28.30;;
68074;SDS011;54864;52.002;5.468;2022-10-15T04:10:04;41.00;;;29.05;;
68074;SDS011;54864;52.002;5.468;2022-10-15T04:11:06;46.58;;;29.75;;
68074;SDS011;54864;52.002;5.468;2022-10-15T04:12:07;41.30;;;28.63;;
68074;SDS011;54864;52.002;5.468;2022-10-15T04:13:09;41.03;;;28.15;;
68074;SDS011;54864;52.002;5.468;2022-10-15T04:14:10;44.58;;;29.95;;
68074;SDS011;54864;52.002;5.468;2022-10-15T04:15:12;43.13;;;29.52;;
68074;SDS011;54864;52.002;5.468;2022-10-15T04:16:12;45.03;;;30.10;;
68074;SDS011;54864;52.002;5.468;2022-10-15T04:17:14;42.35;;;29.80;;
68074;SDS011;54864;52.002;5.468;2022-10-15T04:18:15;45.73;;;30.87;;
68074;SDS011;54864;52.002;5.468;2022-10-15T04:19:19;47.78;;;30.33;;
68074;SDS011;54864;52.002;5.468;2022-10-15T04:20:21;41.80;;;28.20;;
68074;SDS011;54864;52.002;5.468;2022-10-15T04:21:23;46.47;;;30.15;;
68074;SDS011;54864;52.002;5.468;2022-10-15T04:22:24;41.65;;;29.98;;
68074;SDS011;54864;52.002;5.468;2022-10-15T04:23:26;46.30;;;31.23;;
68074;SDS011;54864;52.002;5.468;2022-10-15T04:24:27;43.95;;;30.20;;
68074;SDS011;54864;52.002;5.468;2022-10-15T04:25:29;45.90;;;32.35;;
68074;SDS011;54864;52.002;5.468;2022-10-15T04:26:30;43.63;;;29.92;;
68074;SDS011;54864;52.002;5.468;2022-10-15T04:27:32;39.83;;;29.13;;
68074;SDS011;54864;52.002;5.468;2022-10-15T04:28:33;40.17;;;30.10;;
68074;SDS011;54864;52.002;5.468;2022-10-15T04:29:35;42.40;;;30.83;;
68074;SDS011;54864;52.002;5.468;2022-10-15T04:30:35;42.95;;;30.13;;
68074;SDS011;54864;52.002;5.468;2022-10-15T04:31:37;40.72;;;29.80;;
68074;SDS011;54864;52.002;5.468;2022-10-15T04:32:38;39.97;;;30.60;;
68074;SDS011;54864;52.002;5.468;2022-10-15T04:33:40;43.92;;;30.00;;
68074;SDS011;54864;52.002;5.468;2022-10-15T04:34:40;41.17;;;29.15;;
68074;SDS011;54864;52.002;5.468;2022-10-15T04:35:45;41.42;;;30.05;;
68074;SDS011;54864;52.002;5.468;2022-10-15T04:36:46;40.05;;;30.33;;
68074;SDS011;54864;52.002;5.468;2022-10-15T04:37:47;43.45;;;30.08;;
68074;SDS011;54864;52.002;5.468;2022-10-15T04:38:48;43.58;;;30.55;;
68074;SDS011;54864;52.002;5.468;2022-10-15T04:39:50;40.47;;;31.00;;
68074;SDS011;54864;52.002;5.468;2022-10-15T04:40:56;38.67;;;28.08;;
68074;SDS011;54864;52.002;5.468;2022-10-15T04:42:00;41.38;;;29.92;;
68074;SDS011;54864;52.002;5.468;2022-10-15T04:43:01;48.05;;;31.65;;
68074;SDS011;54864;52.002;5.468;2022-10-15T04:44:03;41.08;;;30.65;;
68074;SDS011;54864;52.002;5.468;2022-10-15T04:45:05;41.83;;;29.23;;
68074;SDS011;54864;52.002;5.468;2022-10-15T04:46:08;42.78;;;30.48;;
68074;SDS011;54864;52.002;5.468;2022-10-15T04:47:09;41.10;;;29.65;;
68074;SDS011;54864;52.002;5.468;2022-10-15T04:48:11;39.88;;;30.50;;
68074;SDS011;54864;52.002;5.468;2022-10-15T04:49:12;46.35;;;32.03;;
68074;SDS011;54864;52.002;5.468;2022-10-15T04:50:13;42.90;;;30.58;;
68074;SDS011;54864;52.002;5.468;2022-10-15T04:51:16;38.10;;;30.08;;
68074;SDS011;54864;52.002;5.468;2022-10-15T04:52:20;47.78;;;31.73;;
68074;SDS011;54864;52.002;5.468;2022-10-15T04:53:21;40.95;;;30.55;;
68074;SDS011;54864;52.002;5.468;2022-10-15T04:54:23;45.00;;;31.45;;
68074;SDS011;54864;52.002;5.468;2022-10-15T04:55:24;41.10;;;31.23;;
68074;SDS011;54864;52.002;5.468;2022-10-15T04:56:25;43.72;;;30.00;;
68074;SDS011;54864;52.002;5.468;2022-10-15T04:57:26;46.10;;;31.10;;
68074;SDS011;54864;52.002;5.468;2022-10-15T04:58:29;42.88;;;31.40;;
68074;SDS011;54864;52.002;5.468;2022-10-15T04:59:32;43.88;;;31.20;;
68074;SDS011;54864;52.002;5.468;2022-10-15T05:00:33;43.90;;;30.33;;
68074;SDS011;54864;52.002;5.468;2022-10-15T05:01:34;45.07;;;33.60;;
68074;SDS011;54864;52.002;5.468;2022-10-15T05:02:36;44.50;;;32.45;;
68074;SDS011;54864;52.002;5.468;2022-10-15T05:03:42;45.13;;;31.00;;
68074;SDS011;54864;52.002;5.468;2022-10-15T05:04:45;42.38;;;32.35;;
68074;SDS011;54864;52.002;5.468;2022-10-15T05:05:46;38.67;;;29.03;;
68074;SDS011;54864;52.002;5.468;2022-10-15T05:06:49;41.53;;;31.55;;
68074;SDS011;54864;52.002;5.468;2022-10-15T05:07:51;41.88;;;31.27;;
68074;SDS011;54864;52.002;5.468;2022-10-15T05:08:52;41.95;;;32.25;;
68074;SDS011;54864;52.002;5.468;2022-10-15T05:09:53;43.20;;;31.75;;
68074;SDS011;54864;52.002;5.468;2022-10-15T05:10:54;45.22;;;32.53;;
68074;SDS011;54864;52.002;5.468;2022-10-15T05:12:00;46.08;;;33.83;;
68074;SDS011;54864;52.002;5.468;2022-10-15T05:13:01;44.37;;;31.23;;
68074;SDS011;54864;52.002;5.468;2022-10-15T05:14:03;43.53;;;33.15;;
68074;SDS011;54864;52.002;5.468;2022-10-15T05:15:05;46.55;;;33.13;;
68074;SDS011;54864;52.002;5.468;2022-10-15T05:16:08;46.58;;;33.83;;
68074;SDS011;54864;52.002;5.468;2022-10-15T05:17:12;41.85;;;32.97;;
68074;SDS011;54864;52.002;5.468;2022-10-15T05:18:14;48.80;;;33.35;;
68074;SDS011;54864;52.002;5.468;2022-10-15T05:19:15;46.00;;;33.17;;
68074;SDS011;54864;52.002;5.468;2022-10-15T05:20:17;48.78;;;34.28;;
68074;SDS011;54864;52.002;5.468;2022-10-15T05:21:17;47.65;;;35.70;;
68074;SDS011;54864;52.002;5.468;2022-10-15T05:22:22;49.88;;;36.67;;
68074;SDS011;54864;52.002;5.468;2022-10-15T05:23:24;49.13;;;36.33;;
68074;SDS011;54864;52.002;5.468;2022-10-15T05:24:26;49.67;;;35.22;;
68074;SDS011;54864;52.002;5.468;2022-10-15T05:25:26;47.40;;;34.00;;
68074;SDS011;54864;52.002;5.468;2022-10-15T05:26:28;51.05;;;35.63;;
68074;SDS011;54864;52.002;5.468;2022-10-15T05:27:29;53.97;;;37.97;;
68074;SDS011;54864;52.002;5.468;2022-10-15T05:28:31;49.63;;;36.07;;
68074;SDS011;54864;52.002;5.468;2022-10-15T05:29:32;47.25;;;35.70;;
68074;SDS011;54864;52.002;5.468;2022-10-15T05:30:34;53.70;;;36.38;;
68074;SDS011;54864;52.002;5.468;2022-10-15T05:31:35;53.23;;;37.70;;
68074;SDS011;54864;52.002;5.468;2022-10-15T05:32:36;50.33;;;36.28;;
68074;SDS011;54864;52.002;5.468;2022-10-15T05:33:37;52.20;;;37.35;;
68074;SDS011;54864;52.002;5.468;2022-10-15T05:34:40;56.80;;;38.88;;
68074;SDS011;54864;52.002;5.468;2022-10-15T05:35:41;58.55;;;40.28;;
68074;SDS011;54864;52.002;5.468;2022-10-15T05:36:42;60.33;;;41.42;;
68074;SDS011;54864;52.002;5.468;2022-10-15T05:37:44;67.22;;;45.00;;
68074;SDS011;54864;52.002;5.468;2022-10-15T05:38:47;66.07;;;42.63;;
68074;SDS011;54864;52.002;5.468;2022-10-15T05:39:51;75.10;;;47.75;;
68074;SDS011;54864;52.002;5.468;2022-10-15T05:40:52;72.05;;;45.10;;
68074;SDS011;54864;52.002;5.468;2022-10-15T05:41:53;75.30;;;47.78;;
68074;SDS011;54864;52.002;5.468;2022-10-15T05:42:55;71.80;;;45.22;;
68074;SDS011;54864;52.002;5.468;2022-10-15T05:43:56;68.13;;;44.17;;
68074;SDS011;54864;52.002;5.468;2022-10-15T05:44:59;79.28;;;49.22;;
68074;SDS011;54864;52.002;5.468;2022-10-15T05:45:59;78.45;;;48.67;;
68074;SDS011;54864;52.002;5.468;2022-10-15T05:47:01;74.00;;;47.10;;
68074;SDS011;54864;52.002;5.468;2022-10-15T05:48:02;76.03;;;46.78;;
68074;SDS011;54864;52.002;5.468;2022-10-15T05:49:05;81.35;;;47.58;;
68074;SDS011;54864;52.002;5.468;2022-10-15T05:50:06;73.72;;;47.20;;
68074;SDS011;54864;52.002;5.468;2022-10-15T05:51:09;79.05;;;47.90;;
68074;SDS011;54864;52.002;5.468;2022-10-15T05:52:12;74.07;;;46.97;;
68074;SDS011;54864;52.002;5.468;2022-10-15T05:53:15;78.60;;;48.77;;
68074;SDS011;54864;52.002;5.468;2022-10-15T05:54:16;76.43;;;48.72;;
68074;SDS011;54864;52.002;5.468;2022-10-15T05:55:21;75.70;;;47.33;;
68074;SDS011;54864;52.002;5.468;2022-10-15T05:56:21;84.40;;;49.17;;
68074;SDS011;54864;52.002;5.468;2022-10-15T05:57:24;78.10;;;46.97;;
68074;SDS011;54864;52.002;5.468;2022-10-15T05:58:25;80.55;;;47.38;;
68074;SDS011;54864;52.002;5.468;2022-10-15T05:59:29;78.25;;;47.80;;
68074;SDS011;54864;52.002;5.468;2022-10-15T06:00:30;81.70;;;48.83;;
68074;SDS011;54864;52.002;5.468;2022-10-15T06:01:33;75.33;;;47.20;;
68074;SDS011;54864;52.002;5.468;2022-10-15T06:02:34;80.45;;;48.40;;
68074;SDS011;54864;52.002;5.468;2022-10-15T06:03:36;81.60;;;48.58;;
68074;SDS011;54864;52.002;5.468;2022-10-15T06:04:38;82.55;;;50.13;;
68074;SDS011;54864;52.002;5.468;2022-10-15T06:05:40;85.25;;;49.42;;
68074;SDS011;54864;52.002;5.468;2022-10-15T06:06:41;82.80;;;47.50;;
68074;SDS011;54864;52.002;5.468;2022-10-15T06:07:43;76.95;;;46.72;;
68074;SDS011;54864;52.002;5.468;2022-10-15T06:08:45;76.43;;;46.27;;
68074;SDS011;54864;52.002;5.468;2022-10-15T06:09:47;76.45;;;45.92;;
68074;SDS011;54864;52.002;5.468;2022-10-15T06:10:48;76.97;;;46.22;;
68074;SDS011;54864;52.002;5.468;2022-10-15T06:11:50;70.43;;;44.38;;
68074;SDS011;54864;52.002;5.468;2022-10-15T06:12:51;73.15;;;44.92;;